Time;durP1;ratioP1;P1;durP2;ratioP2;P2;SDS_P1;SDS_P2;PMS_P1;PMS_P2;Temp;Humidity;BMP_temperature;BMP_pressure;BME280_temperature;BME280_humidity;BME280_pressure;Samples;Min_cycle;Max_cycle;Signal;HPM_P1;HPM_P2
2021/03/04 00:02:11;;;;;;;378.43;86.73;;;7.00;99.90;;;;;;5091475;28;20309;-78
2021/03/04 00:04:38;;;;;;;232.87;85.17;;;7.00;99.90;;;;;;5097267;28;20204;-79
2021/03/04 00:07:04;;;;;;;244.43;86.83;;;7.10;99.90;;;;;;5097211;28;20289;-79
2021/03/04 00:09:30;;;;;;;261.23;89.20;;;7.00;99.90;;;;;;5077141;28;20207;-79
2021/03/04 00:11:58;;;;;;;261.20;87.20;;;7.00;99.90;;;;;;5076912;28;20283;-80
2021/03/04 00:14:24;;;;;;;264.57;88.53;;;7.10;99.90;;;;;;5076883;28;20214;-79
2021/03/04 00:16:50;;;;;;;284.50;90.37;;;7.00;99.90;;;;;;5086292;28;20205;-81
2021/03/04 00:19:17;;;;;;;335.40;88.93;;;7.00;99.90;;;;;;5096833;28;20204;-79
2021/03/04 00:21:43;;;;;;;307.20;94.70;;;7.00;99.90;;;;;;5089507;28;20276;-80
2021/03/04 00:24:10;;;;;;;351.57;91.07;;;7.00;99.90;;;;;;5076192;28;20222;-79
2021/03/04 00:26:36;;;;;;;286.60;91.43;;;7.00;99.90;;;;;;5090969;28;20209;-78
2021/03/04 00:29:04;;;;;;;226.40;89.83;;;7.00;99.90;;;;;;5087276;28;20217;-80
2021/03/04 00:31:31;;;;;;;273.30;93.43;;;7.00;99.90;;;;;;5093635;28;20190;-79
2021/03/04 00:33:57;;;;;;;196.30;91.60;;;7.00;99.90;;;;;;5096262;28;20661;-79
2021/03/04 00:36:24;;;;;;;309.97;91.70;;;7.10;99.90;;;;;;5095969;28;20209;-80
2021/03/04 00:38:50;;;;;;;275.70;91.00;;;7.00;99.90;;;;;;5096910;28;20289;-78
2021/03/04 00:41:16;;;;;;;307.13;88.20;;;7.00;99.90;;;;;;5096232;28;20230;-80
2021/03/04 00:43:43;;;;;;;242.23;88.63;;;6.90;99.90;;;;;;5089894;28;20198;-79
2021/03/04 00:46:10;;;;;;;203.23;87.20;;;6.80;99.90;;;;;;5091196;28;20206;-78
2021/03/04 00:48:36;;;;;;;243.00;89.70;;;6.90;99.90;;;;;;5095951;28;20204;-78
2021/03/04 00:51:03;;;;;;;228.30;86.10;;;6.90;99.90;;;;;;5096207;28;20295;-77
2021/03/04 00:53:29;;;;;;;189.63;85.90;;;7.00;99.90;;;;;;5095805;28;20194;-77
2021/03/04 00:55:55;;;;;;;217.70;88.03;;;7.00;99.90;;;;;;5096148;28;20212;-78
2021/03/04 00:58:22;;;;;;;227.90;87.97;;;7.00;99.90;;;;;;5096126;28;20206;-79
2021/03/04 01:00:48;;;;;;;237.43;90.90;;;7.00;99.90;;;;;;5077988;28;20226;-79
2021/03/04 01:03:15;;;;;;;192.77;86.03;;;7.20;99.90;;;;;;5085242;28;20200;-79
2021/03/04 01:05:42;;;;;;;236.97;92.63;;;7.10;99.90;;;;;;5096094;28;20258;-79
2021/03/04 01:08:08;;;;;;;226.57;86.93;;;7.10;99.90;;;;;;5088630;28;20199;-78
2021/03/04 01:10:38;;;;;;;193.37;86.20;;;7.00;99.90;;;;;;5089590;28;20274;-78
2021/03/04 01:13:04;;;;;;;201.80;92.47;;;6.90;99.90;;;;;;5075817;28;20201;-79
2021/03/04 01:15:32;;;;;;;203.87;92.17;;;7.10;99.90;;;;;;5088250;28;20202;-79
2021/03/04 01:17:58;;;;;;;188.50;85.47;;;7.10;99.90;;;;;;5076936;28;20213;-80
2021/03/04 01:20:26;;;;;;;173.27;84.03;;;7.20;99.90;;;;;;5086398;28;20202;-78
2021/03/04 01:22:52;;;;;;;168.70;83.43;;;7.10;99.90;;;;;;5078272;28;20207;-79
2021/03/04 01:25:19;;;;;;;164.60;82.83;;;7.20;99.90;;;;;;5075147;28;20285;-78
2021/03/04 01:27:47;;;;;;;160.47;80.90;;;7.20;99.90;;;;;;5075044;28;20285;-78
2021/03/04 01:30:14;;;;;;;167.83;82.47;;;7.20;99.90;;;;;;5082384;28;20198;-78
2021/03/04 01:32:42;;;;;;;162.97;82.13;;;7.20;99.90;;;;;;5081784;28;20654;-77
2021/03/04 01:35:09;;;;;;;156.77;80.40;;;7.30;99.90;;;;;;5089364;28;20594;-77
2021/03/04 01:37:37;;;;;;;165.47;78.57;;;7.30;99.90;;;;;;5087290;28;20220;-77
2021/03/04 01:40:06;;;;;;;156.97;80.93;;;7.10;99.90;;;;;;5091006;28;20332;-78
2021/03/04 01:42:33;;;;;;;157.93;78.27;;;7.10;99.90;;;;;;5085984;28;20623;-78
2021/03/04 01:44:59;;;;;;;180.53;80.73;;;7.10;99.90;;;;;;5094804;28;20233;-77
2021/03/04 01:47:26;;;;;;;156.93;77.53;;;7.10;99.90;;;;;;5095131;28;20285;-78
2021/03/04 01:49:53;;;;;;;141.50;74.63;;;7.20;99.90;;;;;;5094895;28;20206;-77
2021/03/04 01:52:20;;;;;;;142.70;72.50;;;7.00;99.90;;;;;;5094934;28;20194;-77
2021/03/04 01:54:47;;;;;;;134.40;71.67;;;7.00;99.90;;;;;;5094807;28;20293;-77
2021/03/04 01:57:14;;;;;;;125.03;69.10;;;7.00;99.90;;;;;;5094534;28;20199;-77
2021/03/04 01:59:41;;;;;;;137.60;71.60;;;7.00;99.90;;;;;;5094442;28;20206;-78
2021/03/04 02:02:07;;;;;;;131.17;67.93;;;7.00;99.90;;;;;;5094189;28;20221;-79
2021/03/04 02:04:34;;;;;;;138.07;71.70;;;7.00;99.90;;;;;;5094507;28;20550;-77
2021/03/04 02:07:05;;;;;;;142.93;72.00;;;7.00;99.90;;;;;;5094593;28;20246;-77
2021/03/04 02:09:32;;;;;;;138.03;72.87;;;7.00;99.90;;;;;;5089317;28;20195;-76
2021/03/04 02:12:06;;;;;;;146.07;73.73;;;7.00;99.90;;;;;;5084610;28;20251;-76
2021/03/04 02:14:37;;;;;;;136.93;69.77;;;7.00;99.90;;;;;;5093670;28;20199;-76
2021/03/04 02:17:07;;;;;;;138.73;71.03;;;7.00;99.90;;;;;;5083408;28;20199;-78
2021/03/04 02:19:46;;;;;;;145.03;73.47;;;6.80;99.90;;;;;;5088365;28;20209;-77
2021/03/04 02:22:29;;;;;;;143.33;71.87;;;6.90;99.90;;;;;;5085631;28;20210;-76
2021/03/04 02:25:05;;;;;;;128.83;69.13;;;7.00;99.90;;;;;;5073958;28;20202;-77
2021/03/04 02:27:34;;;;;;;123.80;66.27;;;7.00;99.90;;;;;;5087382;28;20201;-76
2021/03/04 02:30:06;;;;;;;114.13;63.87;;;7.00;99.90;;;;;;5079570;28;20198;-77
2021/03/04 02:32:34;;;;;;;116.53;66.63;;;7.00;99.90;;;;;;5094419;28;20206;-76
2021/03/04 02:35:09;;;;;;;119.00;67.23;;;7.00;99.90;;;;;;5093758;28;20649;-76
2021/03/04 02:37:40;;;;;;;117.23;65.77;;;7.00;99.90;;;;;;5093881;28;20215;-77
2021/03/04 02:40:09;;;;;;;131.80;67.87;;;7.10;99.90;;;;;;5079551;28;20191;-77
2021/03/04 02:42:39;;;;;;;118.23;62.23;;;7.00;99.90;;;;;;5093843;28;20274;-77
2021/03/04 02:45:07;;;;;;;110.00;63.47;;;7.00;99.90;;;;;;5093378;28;20186;-78
2021/03/04 02:47:35;;;;;;;129.20;66.10;;;6.90;99.90;;;;;;5083646;28;20202;-77
2021/03/04 02:50:02;;;;;;;137.77;68.97;;;6.90;99.90;;;;;;5090046;28;20209;-76
2021/03/04 02:52:29;;;;;;;138.27;73.33;;;6.90;99.90;;;;;;5093608;28;20667;-76
2021/03/04 02:54:56;;;;;;;148.53;72.30;;;6.90;99.90;;;;;;5092671;28;20198;-77
2021/03/04 02:57:25;;;;;;;145.63;72.80;;;6.90;99.90;;;;;;5080176;28;20206;-77
2021/03/04 02:59:54;;;;;;;133.50;68.93;;;6.90;99.90;;;;;;5093449;28;20198;-77
2021/03/04 03:02:21;;;;;;;142.37;70.33;;;6.90;99.90;;;;;;5093226;28;20278;-76
2021/03/04 03:04:48;;;;;;;128.70;70.20;;;6.90;99.90;;;;;;5093445;28;20598;-77
2021/03/04 03:07:15;;;;;;;146.57;73.27;;;6.90;99.90;;;;;;5078334;28;20680;-77
2021/03/04 03:09:44;;;;;;;152.13;73.40;;;6.80;99.90;;;;;;5087128;28;20202;-76
2021/03/04 03:12:12;;;;;;;143.97;72.07;;;6.80;99.90;;;;;;5075398;28;20214;-76
2021/03/04 03:14:38;;;;;;;144.93;70.97;;;6.80;99.90;;;;;;5087960;28;20202;-76
2021/03/04 03:17:07;;;;;;;157.07;72.23;;;6.80;99.90;;;;;;5089752;28;20190;-76
2021/03/04 03:19:34;;;;;;;143.50;69.23;;;6.80;99.90;;;;;;5093036;28;20198;-76
2021/03/04 03:22:00;;;;;;;150.43;73.67;;;6.80;99.90;;;;;;5083750;28;20275;-76
2021/03/04 03:24:27;;;;;;;146.70;68.87;;;6.80;99.90;;;;;;5087800;28;20692;-76
2021/03/04 03:26:53;;;;;;;138.60;66.17;;;6.80;99.90;;;;;;5093428;28;20202;-76
2021/03/04 03:29:20;;;;;;;135.97;67.93;;;6.80;99.90;;;;;;5093216;28;20258;-76
2021/03/04 03:31:48;;;;;;;131.03;67.20;;;6.80;99.90;;;;;;5092766;28;20198;-76
2021/03/04 03:34:16;;;;;;;142.30;67.13;;;6.80;99.90;;;;;;5093118;28;20206;-76
2021/03/04 03:36:44;;;;;;;130.13;64.93;;;6.80;99.90;;;;;;5092464;28;20204;-78
2021/03/04 03:39:13;;;;;;;125.93;63.10;;;6.70;99.90;;;;;;5093307;28;20216;-76
2021/03/04 03:41:42;;;;;;;128.53;63.03;;;6.70;99.90;;;;;;5092839;28;20312;-76
2021/03/04 03:44:10;;;;;;;137.60;66.97;;;6.70;99.90;;;;;;5093068;28;20198;-76
2021/03/04 03:46:37;;;;;;;129.63;62.07;;;6.80;99.90;;;;;;5092561;28;20198;-76
2021/03/04 03:49:05;;;;;;;121.83;60.47;;;6.80;99.90;;;;;;5093051;28;20198;-76
2021/03/04 03:51:34;;;;;;;120.57;61.83;;;6.80;99.90;;;;;;5093140;28;20210;-76
2021/03/04 03:54:02;;;;;;;114.67;57.30;;;6.70;99.90;;;;;;5092378;28;20617;-76
2021/03/04 03:56:30;;;;;;;116.30;59.23;;;6.70;99.90;;;;;;5092892;28;20198;-75
2021/03/04 03:58:59;;;;;;;116.97;58.67;;;6.70;99.90;;;;;;5092571;28;20195;-77
2021/03/04 04:01:27;;;;;;;127.87;58.73;;;6.70;99.90;;;;;;5093070;28;20226;-75
2021/03/04 04:03:56;;;;;;;127.93;61.30;;;6.70;99.90;;;;;;5091554;28;20209;-75
2021/03/04 04:06:22;;;;;;;125.47;60.27;;;6.60;99.90;;;;;;5092865;28;20201;-76
2021/03/04 04:08:50;;;;;;;115.00;55.43;;;6.60;99.90;;;;;;5092583;28;20198;-76
2021/03/04 04:11:17;;;;;;;115.83;55.90;;;6.60;99.90;;;;;;5084470;28;20207;-77
2021/03/04 04:13:43;;;;;;;130.37;58.70;;;6.50;99.90;;;;;;5086403;28;20210;-79
2021/03/04 04:16:09;;;;;;;134.07;61.63;;;6.50;99.90;;;;;;5093079;28;20198;-77
2021/03/04 04:18:36;;;;;;;138.03;61.17;;;6.50;99.90;;;;;;5092196;28;20198;-76
2021/03/04 04:21:03;;;;;;;140.10;61.87;;;6.60;99.90;;;;;;5092201;28;20533;-76
2021/03/04 04:23:29;;;;;;;142.07;63.50;;;6.50;99.90;;;;;;5092703;28;20195;-77
2021/03/04 04:25:56;;;;;;;138.70;63.87;;;6.50;99.90;;;;;;5092125;28;20198;-76
2021/03/04 04:28:22;;;;;;;134.63;62.93;;;6.40;99.90;;;;;;5092633;28;20675;-77
2021/03/04 04:30:49;;;;;;;146.70;64.80;;;6.40;99.90;;;;;;5092587;28;20216;-76
2021/03/04 04:33:17;;;;;;;140.63;64.00;;;6.50;99.90;;;;;;5092332;28;20664;-76
2021/03/04 04:35:43;;;;;;;147.80;64.37;;;6.40;99.90;;;;;;5080955;28;20214;-77
2021/03/04 04:38:10;;;;;;;161.30;69.83;;;6.40;99.90;;;;;;5094574;28;20214;-77
2021/03/04 04:40:37;;;;;;;157.73;69.50;;;6.40;99.90;;;;;;5096484;28;20210;-76
2021/03/04 04:43:04;;;;;;;146.87;66.23;;;6.40;99.90;;;;;;5081500;28;20229;-77
2021/03/04 04:45:31;;;;;;;155.57;69.60;;;6.40;99.90;;;;;;5087482;28;20194;-76
2021/03/04 04:47:57;;;;;;;152.37;65.03;;;6.40;99.90;;;;;;5076656;28;20199;-77
2021/03/04 04:50:24;;;;;;;162.00;66.07;;;6.40;99.90;;;;;;5089103;28;20285;-77
2021/03/04 04:52:50;;;;;;;160.47;66.27;;;6.40;99.90;;;;;;5076150;28;20294;-77
2021/03/04 04:55:16;;;;;;;163.20;67.47;;;6.30;99.90;;;;;;5095403;28;20663;-77
2021/03/04 04:57:43;;;;;;;176.03;67.73;;;6.30;99.90;;;;;;5095956;28;20198;-78
2021/03/04 05:00:11;;;;;;;164.20;64.60;;;6.30;99.90;;;;;;5092247;28;20285;-77
2021/03/04 05:02:38;;;;;;;173.93;64.43;;;6.30;99.90;;;;;;5075448;28;20663;-77
2021/03/04 05:05:05;;;;;;;172.27;67.20;;;6.30;99.90;;;;;;5091663;28;20285;-78
2021/03/04 05:07:32;;;;;;;186.23;69.97;;;6.30;99.90;;;;;;5095810;28;20190;-77
2021/03/04 05:09:58;;;;;;;183.53;70.17;;;6.40;99.90;;;;;;5095665;28;20216;-78
2021/03/04 05:12:24;;;;;;;177.10;67.53;;;6.40;99.90;;;;;;5076223;28;20203;-79
2021/03/04 05:14:51;;;;;;;191.13;69.40;;;6.40;99.90;;;;;;5075481;28;20205;-77
2021/03/04 05:17:19;;;;;;;169.20;65.63;;;6.40;99.90;;;;;;5094148;28;20202;-78
2021/03/04 05:19:45;;;;;;;173.57;67.97;;;6.40;99.90;;;;;;5095460;28;20703;-78
2021/03/04 05:22:12;;;;;;;164.97;66.87;;;6.40;99.90;;;;;;5091590;28;20580;-77
2021/03/04 05:24:38;;;;;;;182.50;69.30;;;6.40;99.90;;;;;;5080827;28;20210;-78
2021/03/04 05:27:05;;;;;;;187.20;71.40;;;6.40;99.90;;;;;;5095369;28;20598;-77
2021/03/04 05:29:31;;;;;;;195.83;70.50;;;6.50;99.90;;;;;;5095071;28;20196;-78
2021/03/04 05:31:58;;;;;;;198.13;74.80;;;6.40;99.90;;;;;;5095276;28;20289;-77
2021/03/04 05:34:25;;;;;;;198.93;70.83;;;6.50;99.90;;;;;;5095078;28;20202;-78
2021/03/04 05:36:52;;;;;;;218.80;72.90;;;6.40;99.90;;;;;;5095249;28;20249;-78
2021/03/04 05:39:18;;;;;;;233.10;72.27;;;6.40;99.90;;;;;;5094819;28;20675;-78
2021/03/04 05:41:44;;;;;;;214.53;73.53;;;6.40;99.90;;;;;;5094845;28;20226;-77
2021/03/04 05:44:11;;;;;;;215.77;71.83;;;6.30;99.90;;;;;;5094858;28;20251;-77
2021/03/04 05:46:39;;;;;;;205.87;72.00;;;6.30;99.90;;;;;;5094642;28;20206;-77
2021/03/04 05:49:10;;;;;;;220.27;76.20;;;6.30;99.90;;;;;;5095060;28;20657;-77
2021/03/04 05:51:40;;;;;;;238.80;77.13;;;6.30;99.90;;;;;;5094860;28;20243;-77
2021/03/04 05:54:08;;;;;;;230.60;74.67;;;6.40;99.90;;;;;;5094874;28;20198;-77
2021/03/04 05:56:35;;;;;;;210.70;73.63;;;6.40;99.90;;;;;;5092805;28;20206;-77
2021/03/04 05:59:02;;;;;;;223.40;75.63;;;6.40;99.90;;;;;;5082789;28;20569;-78
2021/03/04 06:01:29;;;;;;;233.27;75.13;;;6.40;99.90;;;;;;5080392;28;20223;-79
2021/03/04 06:03:57;;;;;;;235.40;75.13;;;6.30;99.90;;;;;;5094998;28;20213;-78
2021/03/04 06:06:24;;;;;;;241.97;77.00;;;6.30;99.90;;;;;;5081733;28;20256;-78
2021/03/04 06:08:51;;;;;;;255.87;75.57;;;6.30;99.90;;;;;;5093315;28;20289;-79
2021/03/04 06:11:17;;;;;;;221.93;74.43;;;6.40;99.90;;;;;;5094421;28;20216;-77
2021/03/04 06:13:44;;;;;;;256.10;78.30;;;6.30;99.90;;;;;;5077061;28;20191;-78
2021/03/04 06:16:11;;;;;;;255.47;75.67;;;6.30;99.90;;;;;;5083338;28;20213;-78
2021/03/04 06:18:39;;;;;;;234.07;76.47;;;6.40;99.90;;;;;;5094296;28;20204;-77
2021/03/04 06:21:17;;;;;;;227.37;73.10;;;6.30;99.90;;;;;;5093929;28;20198;-78
2021/03/04 06:23:44;;;;;;;262.33;77.50;;;6.40;99.90;;;;;;5094063;28;20568;-78
2021/03/04 06:26:11;;;;;;;265.37;76.50;;;6.30;99.90;;;;;;5094164;28;20202;-78
2021/03/04 06:28:37;;;;;;;257.83;79.97;;;6.30;99.90;;;;;;5094217;28;20281;-78
2021/03/04 06:31:04;;;;;;;255.80;78.20;;;6.40;99.90;;;;;;5094527;28;20206;-78
2021/03/04 06:33:35;;;;;;;252.83;77.30;;;6.30;99.90;;;;;;5094398;28;20225;-79
2021/03/04 06:36:13;;;;;;;240.47;76.53;;;6.40;99.90;;;;;;5094071;28;20205;-79
2021/03/04 06:38:39;;;;;;;239.87;72.67;;;6.30;99.90;;;;;;5094320;28;20206;-79
2021/03/04 06:41:18;;;;;;;261.33;78.97;;;6.30;99.90;;;;;;5093488;28;20205;-78
2021/03/04 06:43:45;;;;;;;252.27;77.67;;;6.30;99.90;;;;;;5082158;28;20293;-80
2021/03/04 06:46:12;;;;;;;246.20;74.83;;;6.30;99.90;;;;;;5093751;28;20218;-79
2021/03/04 06:48:50;;;;;;;234.33;71.10;;;6.30;99.90;;;;;;5094204;28;20289;-79
2021/03/04 06:51:16;;;;;;;234.07;73.40;;;6.40;99.90;;;;;;5093352;28;20558;-79
2021/03/04 06:53:50;;;;;;;235.77;70.97;;;6.30;99.90;;;;;;5093083;28;20194;-78
2021/03/04 06:56:29;;;;;;;235.57;71.63;;;6.40;99.90;;;;;;5093995;28;20198;-78
2021/03/04 06:58:59;;;;;;;215.87;70.00;;;6.30;99.90;;;;;;5091119;28;20206;-77
2021/03/04 07:01:26;;;;;;;187.07;62.83;;;6.30;99.90;;;;;;5093438;28;20222;-79
2021/03/04 07:03:54;;;;;;;177.57;60.20;;;6.30;99.90;;;;;;5090014;28;20279;-77
2021/03/04 07:06:21;;;;;;;167.43;58.27;;;6.30;99.90;;;;;;5093400;28;20210;-77
2021/03/04 07:08:49;;;;;;;161.43;61.30;;;6.20;99.90;;;;;;5093214;28;20204;-78
2021/03/04 07:11:16;;;;;;;157.07;54.60;;;6.30;99.90;;;;;;5093115;28;20639;-78
2021/03/04 07:13:45;;;;;;;131.17;50.63;;;6.30;99.90;;;;;;5093259;28;20190;-78
2021/03/04 07:16:17;;;;;;;117.93;47.40;;;6.30;99.90;;;;;;5082233;28;20221;-78
2021/03/04 07:18:45;;;;;;;118.23;48.50;;;6.30;99.90;;;;;;5089523;28;20716;-78
2021/03/04 07:21:13;;;;;;;112.23;48.30;;;6.40;99.90;;;;;;5092358;28;20198;-77
2021/03/04 07:23:40;;;;;;;119.30;47.73;;;6.40;99.90;;;;;;5093437;28;20236;-77
2021/03/04 07:26:07;;;;;;;118.07;47.97;;;6.40;99.90;;;;;;5093044;28;20194;-73
2021/03/04 07:28:37;;;;;;;138.87;51.80;;;6.40;99.90;;;;;;5092808;28;20718;-73
2021/03/04 07:31:05;;;;;;;122.80;50.83;;;6.40;99.90;;;;;;5092962;28;20289;-73
2021/03/04 07:33:34;;;;;;;132.10;52.43;;;6.40;99.90;;;;;;5093111;28;20194;-76
2021/03/04 07:36:03;;;;;;;132.37;50.27;;;6.50;99.90;;;;;;5092643;28;20208;-76
2021/03/04 07:38:30;;;;;;;147.93;53.17;;;6.50;99.90;;;;;;5092927;28;20199;-75
2021/03/04 07:41:01;;;;;;;161.07;57.10;;;6.50;99.90;;;;;;5092720;28;20209;-75
2021/03/04 07:43:27;;;;;;;198.00;61.87;;;6.50;99.90;;;;;;5092435;28;20220;-75
2021/03/04 07:45:54;;;;;;;188.33;63.07;;;6.50;99.90;;;;;;5093491;28;20225;-76
2021/03/04 07:48:21;;;;;;;220.97;71.43;;;6.50;99.90;;;;;;5092597;28;20285;-75
2021/03/04 07:51:00;;;;;;;240.00;68.90;;;6.50;99.90;;;;;;5092951;28;20220;-75
2021/03/04 07:53:27;;;;;;;211.47;66.90;;;6.50;99.90;;;;;;5092644;28;20197;-75
2021/03/04 07:55:54;;;;;;;221.90;68.37;;;6.50;99.90;;;;;;5092595;28;20202;-75
2021/03/04 07:58:20;;;;;;;214.60;66.07;;;6.50;99.90;;;;;;5092632;28;20198;-75
2021/03/04 08:00:46;;;;;;;187.80;63.17;;;6.60;99.90;;;;;;5092815;28;20226;-76
2021/03/04 08:03:14;;;;;;;171.63;56.47;;;6.50;99.90;;;;;;5092025;28;20637;-77
2021/03/04 08:05:43;;;;;;;145.93;54.27;;;6.50;99.90;;;;;;5092944;28;20198;-77
2021/03/04 08:08:12;;;;;;;138.13;51.70;;;6.40;99.90;;;;;;5093236;28;20606;-77
2021/03/04 08:10:49;;;;;;;125.23;49.03;;;6.50;99.90;;;;;;5093159;28;20202;-78
2021/03/04 08:13:16;;;;;;;129.40;48.93;;;6.40;99.90;;;;;;5096878;28;20201;-77
2021/03/04 08:15:43;;;;;;;130.07;48.93;;;6.40;99.90;;;;;;5096603;28;20247;-76
2021/03/04 08:18:17;;;;;;;112.27;44.13;;;6.50;99.90;;;;;;5096803;28;20194;-76
2021/03/04 08:20:45;;;;;;;102.50;41.17;;;6.50;99.90;;;;;;5096168;28;20740;-77
2021/03/04 08:23:12;;;;;;;104.40;41.30;;;6.50;99.90;;;;;;5096197;28;20305;-77
2021/03/04 08:25:41;;;;;;;102.33;41.43;;;6.40;99.90;;;;;;5096211;28;20206;-76
2021/03/04 08:28:07;;;;;;;100.13;43.07;;;6.50;99.90;;;;;;5096323;28;20194;-76
2021/03/04 08:30:37;;;;;;;104.40;42.20;;;6.40;99.90;;;;;;5096177;28;20843;-76
2021/03/04 08:33:06;;;;;;;111.13;44.57;;;6.50;99.90;;;;;;5096213;28;20202;-77
2021/03/04 08:35:36;;;;;;;122.97;46.43;;;6.50;99.90;;;;;;5086297;28;20195;-76
2021/03/04 08:38:06;;;;;;;124.90;46.67;;;6.50;99.90;;;;;;5080220;28;20304;-76
2021/03/04 08:40:39;;;;;;;126.60;46.33;;;6.50;99.90;;;;;;5086056;28;20270;-76
2021/03/04 08:43:10;;;;;;;138.10;50.60;;;6.60;99.90;;;;;;5096094;28;20213;-75
2021/03/04 08:45:36;;;;;;;130.53;48.27;;;6.50;99.90;;;;;;5096084;28;20762;-74
2021/03/04 08:48:07;;;;;;;138.73;49.53;;;6.60;99.90;;;;;;5095952;28;20263;-74
2021/03/04 08:50:39;;;;;;;131.43;48.53;;;6.60;99.90;;;;;;5095743;28;20572;-75
2021/03/04 08:53:12;;;;;;;161.60;52.27;;;6.50;99.90;;;;;;5095909;28;20247;-75
2021/03/04 08:55:45;;;;;;;179.27;58.93;;;6.60;99.90;;;;;;5095889;28;20202;-77
2021/03/04 08:58:12;;;;;;;180.13;58.53;;;6.50;99.90;;;;;;5096063;28;20206;-76
2021/03/04 09:00:38;;;;;;;176.80;57.43;;;6.50;99.90;;;;;;5095526;28;20206;-76
2021/03/04 09:03:10;;;;;;;189.93;57.23;;;6.60;99.90;;;;;;5095490;28;20783;-76
2021/03/04 09:05:36;;;;;;;173.33;54.83;;;6.60;99.90;;;;;;5092364;28;20194;-76
2021/03/04 09:08:12;;;;;;;173.27;53.80;;;6.60;99.90;;;;;;5095266;28;20250;-76
2021/03/04 09:10:49;;;;;;;152.80;49.53;;;6.50;99.90;;;;;;5095260;28;20202;-75
2021/03/04 09:13:23;;;;;;;151.13;48.23;;;6.50;99.90;;;;;;5095684;28;20201;-77
2021/03/04 09:15:52;;;;;;;157.40;49.00;;;6.50;99.90;;;;;;5092275;28;20218;-76
2021/03/04 09:18:20;;;;;;;144.30;48.17;;;6.50;99.90;;;;;;5095149;28;20202;-75
2021/03/04 09:20:47;;;;;;;158.13;49.53;;;6.50;99.90;;;;;;5091366;28;20202;-75
2021/03/04 09:23:15;;;;;;;150.20;49.27;;;6.60;99.90;;;;;;5094507;28;20218;-75
2021/03/04 09:25:41;;;;;;;151.40;48.63;;;6.60;99.90;;;;;;5095275;28;20201;-76
2021/03/04 09:28:11;;;;;;;141.53;47.57;;;6.60;99.90;;;;;;5093670;28;20194;-77
2021/03/04 09:30:38;;;;;;;168.37;49.97;;;6.70;99.90;;;;;;5093994;28;20194;-77
2021/03/04 09:33:15;;;;;;;150.80;49.20;;;6.60;99.90;;;;;;5094861;28;20262;-75
2021/03/04 09:35:52;;;;;;;147.70;46.53;;;6.60;99.90;;;;;;5095239;28;20193;-74
2021/03/04 09:38:20;;;;;;;154.25;55.85;;;6.60;99.90;;;;;;5093869;28;20525;-75
2021/03/04 09:40:46;;;;;;;137.40;46.33;;;6.60;99.90;;;;;;5094915;28;20278;-76
2021/03/04 09:43:16;;;;;;;120.87;43.37;;;6.60;99.90;;;;;;5094560;28;20226;-75
2021/03/04 09:45:46;;;;;;;106.27;39.40;;;6.70;99.90;;;;;;5081463;28;20329;-81
2021/03/04 09:48:13;;;;;;;98.80;35.70;;;6.60;99.90;;;;;;5087053;28;20208;-79
2021/03/04 09:50:50;;;;;;;102.33;36.93;;;6.60;99.90;;;;;;5097579;28;20205;-77
2021/03/04 09:53:17;;;;;;;101.73;33.47;;;6.60;99.90;;;;;;5099465;28;20253;-77
2021/03/04 09:55:45;;;;;;;93.17;33.80;;;6.60;99.90;;;;;;5099891;28;20229;-77
2021/03/04 09:58:13;;;;;;;81.77;32.60;;;6.60;99.90;;;;;;5097526;28;20205;-77
2021/03/04 10:00:40;;;;;;;80.10;30.83;;;6.50;99.90;;;;;;5099092;28;20285;-77
2021/03/04 10:03:09;;;;;;;76.33;29.30;;;6.50;99.90;;;;;;5096407;28;20221;-78
2021/03/04 10:05:45;;;;;;;70.90;27.97;;;6.40;99.90;;;;;;5087821;28;20206;-78
2021/03/04 10:08:12;;;;;;;61.73;25.47;;;6.50;99.90;;;;;;5092709;28;20534;-77
2021/03/04 10:10:38;;;;;;;66.90;27.50;;;6.50;99.90;;;;;;5092611;28;20214;-77
2021/03/04 10:13:06;;;;;;;67.37;24.30;;;6.50;99.90;;;;;;5093308;28;20363;-78
2021/03/04 10:15:34;;;;;;;60.37;22.80;;;6.60;99.90;;;;;;5093964;28;20200;-79
2021/03/04 10:18:03;;;;;;;69.13;23.63;;;6.50;99.90;;;;;;5094324;28;20198;-78
2021/03/04 10:20:30;;;;;;;63.90;25.33;;;6.50;99.90;;;;;;5094151;28;20207;-78
2021/03/04 10:22:56;;;;;;;62.20;24.77;;;6.50;99.90;;;;;;5093667;28;20680;-77
2021/03/04 10:25:23;;;;;;;64.37;26.63;;;6.50;99.90;;;;;;5083126;28;20210;-80
2021/03/04 10:27:51;;;;;;;58.03;25.33;;;6.60;99.90;;;;;;5094370;28;20223;-77
2021/03/04 10:30:20;;;;;;;62.23;26.40;;;6.50;99.90;;;;;;5099371;28;20251;-79
2021/03/04 10:32:46;;;;;;;62.00;25.43;;;6.50;99.90;;;;;;5097999;28;20206;-77
2021/03/04 10:35:15;;;;;;;67.67;27.83;;;6.50;99.90;;;;;;5097986;28;20211;-78
2021/03/04 10:37:43;;;;;;;57.00;26.40;;;6.50;99.90;;;;;;5097187;28;20292;-78
2021/03/04 10:40:11;;;;;;;64.33;26.67;;;6.50;99.90;;;;;;5096638;28;20204;-78
2021/03/04 10:42:38;;;;;;;65.93;25.07;;;6.50;99.90;;;;;;5095217;28;20688;-78
2021/03/04 10:45:06;;;;;;;58.10;24.57;;;6.50;99.90;;;;;;5095917;28;20211;-79
2021/03/04 10:47:33;;;;;;;56.63;23.57;;;6.50;99.90;;;;;;5094216;28;20224;-79
2021/03/04 10:49:59;;;;;;;49.50;21.93;;;6.60;99.90;;;;;;5097259;28;20204;-79
2021/03/04 10:52:26;;;;;;;48.03;20.03;;;6.60;99.90;;;;;;5098033;28;20208;-79
2021/03/04 10:54:52;;;;;;;47.97;20.43;;;6.60;99.90;;;;;;5096135;28;20206;-79
2021/03/04 10:57:19;;;;;;;41.20;18.07;;;6.50;99.90;;;;;;5098812;28;20197;-77
2021/03/04 10:59:46;;;;;;;43.87;19.17;;;6.50;99.90;;;;;;5097050;28;20200;-78
2021/03/04 11:02:12;;;;;;;38.63;18.80;;;6.40;99.90;;;;;;5098006;28;20217;-76
2021/03/04 11:04:40;;;;;;;48.57;20.30;;;6.50;99.90;;;;;;5096650;28;20205;-77
2021/03/04 11:07:06;;;;;;;42.60;20.00;;;6.60;99.90;;;;;;5096288;28;20925;-76
2021/03/04 11:09:32;;;;;;;43.43;20.07;;;6.60;99.90;;;;;;5097252;28;21366;-78
2021/03/04 11:11:59;;;;;;;37.63;17.87;;;6.70;99.90;;;;;;5098653;28;20335;-75
2021/03/04 11:14:25;;;;;;;44.23;19.90;;;6.80;99.90;;;;;;5097595;28;20265;-75
2021/03/04 11:16:52;;;;;;;40.80;19.17;;;6.80;99.90;;;;;;5096839;28;20783;-76
2021/03/04 11:19:18;;;;;;;42.80;17.90;;;6.80;99.90;;;;;;5096764;28;20282;-75
2021/03/04 11:21:46;;;;;;;40.10;18.23;;;6.80;99.90;;;;;;5095712;28;20251;-75
2021/03/04 11:24:13;;;;;;;40.63;17.90;;;6.80;99.90;;;;;;5096943;28;20206;-74
2021/03/04 11:26:40;;;;;;;40.67;18.57;;;6.80;99.90;;;;;;5096954;28;20201;-74
2021/03/04 11:29:07;;;;;;;41.00;17.67;;;6.90;99.90;;;;;;5097625;28;20214;-75
2021/03/04 11:31:33;;;;;;;32.20;16.10;;;6.80;99.90;;;;;;5096957;28;20605;-75
2021/03/04 11:34:00;;;;;;;31.63;14.77;;;6.80;99.90;;;;;;5097338;28;20206;-75
2021/03/04 11:36:26;;;;;;;39.13;15.37;;;6.80;99.90;;;;;;5095538;28;20736;-75
2021/03/04 11:38:53;;;;;;;34.53;16.33;;;6.80;99.90;;;;;;5096956;28;20221;-75
2021/03/04 11:41:20;;;;;;;34.03;14.90;;;6.80;99.90;;;;;;5096497;28;20204;-75
2021/03/04 11:43:47;;;;;;;34.00;15.03;;;6.80;99.90;;;;;;5096553;28;20309;-75
2021/03/04 11:46:13;;;;;;;35.33;16.70;;;6.80;99.90;;;;;;5101421;28;20200;-75
2021/03/04 11:48:40;;;;;;;34.70;15.80;;;6.80;99.90;;;;;;5101976;28;20221;-75
2021/03/04 11:51:06;;;;;;;34.33;15.67;;;6.80;99.90;;;;;;5103148;28;20201;-75
2021/03/04 11:53:33;;;;;;;34.07;16.33;;;6.90;99.90;;;;;;5103938;28;20199;-75
2021/03/04 11:56:00;;;;;;;38.10;17.23;;;6.80;99.90;;;;;;5105067;28;20201;-75
2021/03/04 11:58:27;;;;;;;35.30;17.63;;;6.90;99.90;;;;;;5103922;28;20217;-73
2021/03/04 12:00:54;;;;;;;45.10;19.93;;;6.80;99.90;;;;;;5102932;28;20233;-74
2021/03/04 12:03:21;;;;;;;39.60;20.30;;;6.90;99.90;;;;;;5103892;28;20229;-74
2021/03/04 12:05:47;;;;;;;48.10;21.50;;;6.90;99.90;;;;;;5101543;28;20213;-75
2021/03/04 12:08:14;;;;;;;53.60;21.80;;;6.80;99.90;;;;;;5100583;28;20556;-75
2021/03/04 12:10:40;;;;;;;55.53;25.90;;;6.80;99.90;;;;;;5102654;28;20288;-75
2021/03/04 12:13:08;;;;;;;58.13;24.50;;;6.90;99.90;;;;;;5103970;28;20206;-76
2021/03/04 12:15:35;;;;;;;62.50;25.63;;;6.90;99.90;;;;;;5103210;28;20198;-75
2021/03/04 12:18:01;;;;;;;65.00;28.17;;;6.90;99.90;;;;;;5103538;28;20566;-75
2021/03/04 12:20:28;;;;;;;63.43;28.13;;;6.90;99.90;;;;;;5104484;28;20205;-75
2021/03/04 12:22:55;;;;;;;65.47;29.23;;;6.80;99.90;;;;;;5102712;28;20221;-75
2021/03/04 12:25:22;;;;;;;70.83;30.20;;;7.00;99.90;;;;;;5102477;28;20209;-75
2021/03/04 12:27:48;;;;;;;80.97;34.57;;;6.90;99.90;;;;;;5104391;28;20208;-75
2021/03/04 12:30:17;;;;;;;64.20;32.20;;;7.00;99.90;;;;;;5103806;28;20210;-76
2021/03/04 12:32:44;;;;;;;72.43;32.73;;;7.00;99.90;;;;;;5102052;28;20568;-75